createdAt,value
2022-11-28T00:02:01.585Z,66.80
2022-11-28T00:04:30.892Z,67.15
2022-11-28T00:07:00.170Z,67.43
2022-11-28T00:09:29.788Z,67.66
2022-11-28T00:11:58.919Z,67.53
2022-11-28T00:14:29.602Z,67.05
2022-11-28T00:16:59.008Z,67.63
2022-11-28T00:19:28.117Z,67.29
2022-11-28T00:21:57.249Z,67.71
2022-11-28T00:24:26.613Z,67.09
2022-11-28T00:26:56.883Z,67.87
2022-11-28T00:29:26.022Z,67.85
2022-11-28T00:31:56.773Z,67.54
2022-11-28T00:34:25.852Z,67.53
2022-11-28T00:36:54.954Z,67.93
2022-11-28T00:39:24.139Z,67.25
2022-11-28T00:41:53.316Z,67.43
2022-11-28T00:44:22.526Z,67.67
2022-11-28T00:46:51.675Z,67.72
2022-11-28T00:49:22.338Z,67.49
2022-11-28T00:51:51.615Z,67.80
2022-11-28T00:54:20.724Z,67.64
2022-11-28T00:56:50.010Z,67.87
2022-11-28T00:59:19.143Z,67.66
2022-11-28T01:01:48.432Z,67.59
2022-11-28T01:04:19.059Z,67.55
2022-11-28T01:06:51.436Z,67.90
2022-11-28T01:09:22.879Z,67.79
2022-11-28T01:11:54.064Z,67.63
2022-11-28T01:14:24.740Z,67.94
2022-11-28T01:16:54.318Z,67.52
2022-11-28T01:19:23.413Z,67.64
2022-11-28T01:21:54.015Z,67.90
2022-11-28T01:24:23.197Z,67.86
2022-11-28T01:26:52.340Z,68.27
2022-11-28T01:29:21.500Z,68.18
2022-11-28T01:31:50.757Z,68.19
2022-11-28T01:34:19.958Z,68.16
2022-11-28T01:36:49.008Z,67.59
2022-11-28T01:39:19.697Z,67.95
2022-11-28T01:41:48.905Z,67.66
2022-11-28T01:44:54.769Z,68.21
2022-11-28T01:47:27.792Z,67.95
2022-11-28T01:49:57.779Z,68.06
2022-11-28T01:52:27.033Z,67.55
2022-11-28T01:55:02.086Z,67.72
2022-11-28T01:57:31.619Z,67.63
2022-11-28T02:00:06.037Z,67.49
2022-11-28T02:02:39.578Z,67.89
2022-11-28T02:05:09.394Z,67.27
2022-11-28T02:07:39.797Z,67.32
2022-11-28T02:10:13.986Z,67.72
2022-11-28T02:12:59.303Z,67.29
2022-11-28T02:15:59.566Z,67.80
2022-11-28T02:18:50.169Z,67.28
2022-11-28T02:21:56.224Z,67.18
2022-11-28T02:24:58.098Z,67.63
2022-11-28T02:28:20.728Z,67.41
2022-11-28T02:31:00.164Z,67.66
2022-11-28T02:33:33.993Z,67.49
2022-11-28T02:36:12.262Z,67.62
2022-11-28T02:39:05.614Z,67.13
2022-11-28T02:41:41.194Z,67.06
2022-11-28T02:44:15.733Z,67.21
2022-11-28T02:46:53.833Z,67.39
2022-11-28T02:49:31.496Z,67.07
2022-11-28T02:52:06.465Z,67.24
2022-11-28T02:54:36.111Z,67.60
2022-11-28T02:57:05.381Z,67.11
2022-11-28T02:59:47.376Z,67.53
2022-11-28T03:02:21.717Z,67.05
2022-11-28T03:05:01.887Z,66.92
2022-11-28T03:07:48.403Z,67.42
2022-11-28T03:10:28.720Z,67.20
2022-11-28T03:13:07.048Z,66.96
2022-11-28T03:15:46.310Z,66.93
2022-11-28T03:18:20.158Z,67.03
2022-11-28T03:20:56.833Z,67.50
2022-11-28T03:23:33.671Z,67.67
2022-11-28T03:26:08.749Z,67.64
2022-11-28T03:28:43.867Z,66.91
2022-11-28T03:31:17.426Z,67.28
2022-11-28T03:33:50.863Z,67.28
2022-11-28T03:36:24.951Z,67.22
2022-11-28T03:39:01.287Z,67.56
2022-11-28T03:41:35.096Z,66.86
2022-11-28T03:44:08.689Z,67.13
2022-11-28T03:46:40.748Z,67.34
2022-11-28T03:49:13.070Z,67.62
2022-11-28T03:51:48.713Z,67.18
2022-11-28T03:54:23.015Z,66.98
2022-11-28T03:56:59.137Z,67.71
2022-11-28T03:59:34.660Z,67.19
2022-11-28T04:02:08.419Z,67.53
2022-11-28T04:04:47.452Z,67.59
2022-11-28T04:07:26.917Z,67.41
2022-11-28T04:10:02.302Z,67.37
2022-11-28T04:12:41.809Z,67.00
2022-11-28T04:15:17.094Z,66.53
2022-11-28T04:17:52.812Z,66.82
2022-11-28T04:20:30.671Z,67.29
2022-11-28T04:23:06.446Z,66.47
2022-11-28T04:25:38.983Z,67.12
2022-11-28T04:28:13.274Z,67.04
2022-11-28T04:30:46.425Z,66.82
2022-11-28T04:33:18.839Z,66.78
2022-11-28T04:35:51.908Z,66.40
2022-11-28T04:38:24.620Z,66.72
2022-11-28T04:40:56.962Z,66.33
2022-11-28T04:43:30.590Z,66.65
2022-11-28T04:46:05.925Z,66.28
2022-11-28T04:48:35.566Z,66.28
2022-11-28T04:51:17.207Z,66.44
2022-11-28T04:53:52.473Z,66.70
2022-11-28T04:56:25.661Z,66.36
2022-11-28T04:58:56.758Z,66.07
2022-11-28T05:01:29.214Z,66.19
2022-11-28T05:03:59.092Z,65.98
2022-11-28T05:06:34.471Z,65.78
2022-11-28T05:09:08.728Z,65.38
2022-11-28T05:11:37.911Z,64.88
2022-11-28T05:14:07.108Z,65.44
2022-11-28T05:16:36.996Z,65.15
2022-11-28T05:19:06.295Z,65.77
2022-11-28T05:21:35.547Z,66.15
2022-11-28T05:24:06.674Z,65.70
2022-11-28T05:26:36.261Z,65.74
2022-11-28T05:29:05.873Z,65.48
2022-11-28T05:31:35.255Z,65.63
2022-11-28T05:34:04.469Z,65.96
2022-11-28T05:36:33.671Z,65.81
2022-11-28T05:39:02.960Z,65.62
2022-11-28T05:41:34.826Z,66.22
2022-11-28T05:44:04.083Z,65.75
2022-11-28T05:46:33.218Z,65.54
2022-11-28T05:49:02.365Z,66.28
2022-11-28T05:51:31.576Z,65.54
2022-11-28T05:54:00.719Z,66.04
2022-11-28T05:56:29.956Z,65.24
2022-11-28T05:59:00.842Z,65.29
2022-11-28T06:01:31.549Z,65.62
2022-11-28T06:04:02.722Z,65.41
2022-11-28T06:06:33.712Z,65.14
2022-11-28T06:09:07.773Z,65.72
2022-11-28T06:11:37.630Z,65.34
2022-11-28T06:14:11.360Z,65.19
2022-11-28T06:16:40.697Z,65.44
2022-11-28T06:19:10.040Z,65.68
2022-11-28T06:21:41.799Z,65.62
2022-11-28T06:24:12.539Z,65.48
2022-11-28T06:26:41.775Z,65.24
2022-11-28T06:29:12.648Z,65.42
2022-11-28T06:31:42.162Z,64.85
2022-11-28T06:34:13.066Z,65.17
2022-11-28T06:36:42.491Z,65.54
2022-11-28T06:39:15.288Z,65.44
2022-11-28T06:41:45.287Z,65.51
2022-11-28T06:44:23.179Z,65.24
2022-11-28T06:46:52.607Z,65.44
2022-11-28T06:49:21.988Z,65.38
2022-11-28T06:51:54.150Z,65.33
2022-11-28T06:54:23.542Z,65.30
2022-11-28T06:56:52.917Z,65.25
2022-11-28T06:59:23.719Z,65.31
2022-11-28T07:01:53.172Z,65.35
2022-11-28T07:04:22.929Z,65.64
2022-11-28T07:06:55.192Z,65.19
2022-11-28T07:09:24.534Z,65.40
2022-11-28T07:11:54.060Z,65.63
2022-11-28T07:14:24.942Z,65.52
2022-11-28T07:16:54.440Z,65.30
2022-11-28T07:19:23.861Z,65.00
2022-11-28T07:21:53.539Z,65.13
2022-11-28T07:24:22.912Z,65.28
2022-11-28T07:26:55.336Z,65.22
2022-11-28T07:29:31.879Z,65.12
2022-11-28T07:32:01.525Z,65.52
2022-11-28T07:34:33.937Z,65.62
2022-11-28T07:37:03.893Z,65.66
2022-11-28T07:39:34.741Z,65.65
2022-11-28T07:42:05.860Z,65.48
2022-11-28T07:44:36.793Z,65.54
2022-11-28T07:47:06.383Z,65.31
2022-11-28T07:49:35.861Z,64.93
2022-11-28T07:52:05.268Z,65.03
2022-11-28T07:54:34.609Z,65.31
2022-11-28T07:57:12.088Z,65.32
2022-11-28T07:59:44.232Z,65.41
2022-11-28T08:02:13.971Z,65.42
2022-11-28T08:04:49.356Z,65.38
2022-11-28T08:07:20.170Z,65.62
2022-11-28T08:09:49.416Z,65.80
2022-11-28T08:12:18.634Z,65.18
2022-11-28T08:14:49.292Z,65.61
2022-11-28T08:17:18.548Z,65.33
2022-11-28T08:19:50.859Z,65.63
2022-11-28T08:22:25.145Z,65.38
2022-11-28T08:24:54.313Z,65.44
2022-11-28T08:27:28.291Z,65.75
2022-11-28T08:29:58.979Z,65.62
2022-11-28T08:32:28.181Z,65.64
2022-11-28T08:34:57.335Z,65.62
2022-11-28T08:37:26.979Z,65.55
2022-11-28T08:39:56.140Z,65.36
2022-11-28T08:42:25.302Z,65.77
2022-11-28T08:44:54.351Z,65.90
2022-11-28T08:47:25.065Z,65.71
2022-11-28T08:49:54.276Z,65.55
2022-11-28T08:52:24.802Z,65.69
2022-11-28T08:54:59.307Z,65.75
2022-11-28T08:57:28.507Z,65.21
2022-11-28T08:59:57.729Z,65.30
2022-11-28T09:02:28.302Z,65.71
2022-11-28T09:04:57.425Z,65.58
2022-11-28T09:07:26.647Z,65.72
2022-11-28T09:09:55.908Z,65.38
2022-11-28T09:12:25.000Z,66.06
2022-11-28T09:14:54.108Z,65.74
2022-11-28T09:17:23.965Z,65.97
2022-11-28T09:19:54.582Z,65.71
2022-11-28T09:22:23.765Z,65.58
2022-11-28T09:24:52.936Z,65.65
2022-11-28T09:27:22.069Z,65.94
2022-11-28T09:29:51.269Z,65.99
2022-11-28T09:32:20.444Z,66.05
2022-11-28T09:34:51.551Z,65.62
2022-11-28T09:37:22.208Z,65.80
2022-11-28T09:40:12.035Z,65.96
2022-11-28T09:42:46.095Z,66.01
2022-11-28T09:45:18.952Z,65.68
2022-11-28T09:47:52.261Z,66.15
2022-11-28T09:50:24.392Z,65.61
2022-11-28T09:53:02.044Z,65.71
2022-11-28T09:55:37.087Z,65.72
2022-11-28T09:58:13.534Z,65.59
2022-11-28T10:00:54.094Z,66.35
2022-11-28T10:03:45.540Z,66.25
2022-11-28T10:06:20.519Z,66.34
2022-11-28T10:09:20.325Z,65.69
2022-11-28T10:12:01.727Z,66.25
2022-11-28T10:15:10.574Z,66.03
2022-11-28T10:17:50.913Z,65.19
2022-11-28T10:20:25.467Z,65.92
2022-11-28T10:22:59.428Z,65.32
2022-11-28T10:25:32.918Z,65.56
2022-11-28T10:28:03.969Z,65.32
2022-11-28T10:30:38.534Z,65.66
2022-11-28T10:33:18.253Z,66.11
